YYZ weather

Lester B. Pearson International Airport
Toronto, Ontario, Canada

Public forecast

Using degrees Celsius for public forecast. Weather courtesy of forecast.io.

METAR (pilot weather report)

Retrieved 2018/12/15 13:00 UTC (47 minutes ago):

CYYZ 151300Z 03004KT 10SM SCT015 OVC250 00/M01 A3023 RMK SC3CI5 SLP245

TAF (pilot weather forecast)

Retrieved 2018/12/15 12:39 UTC (1 hour ago):

TAF CYYZ 151138Z 1512/1618 33005KT P6SM BKN240 BECMG 1516/1518 05010G20KT BECMG 1519/1521 09010G20KT FM160000 07015KT P6SM SCT240 FM160500 06010KT P6SM FEW240 FM161000 03007KT P6SM BKN150 FM161400 01010KT P6SM FEW020 BKN100 RMK NXT FCST BY 151500Z